Time;durP1;ratioP1;P1;durP2;ratioP2;P2;SDS_P1;SDS_P2;PMS_P1;PMS_P2;Temp;Humidity;BMP_temperature;BMP_pressure;BME280_temperature;BME280_humidity;BME280_pressure;Samples;Min_cycle;Max_cycle;Signal;HPM_P1;HPM_P2
2024/02/12 00:01:55;;;;;;;23.90;6.50;;;;;;;12.65;69.00;100259.67;109017;1254;59300;-62
2024/02/12 00:04:26;;;;;;;21.30;6.40;;;;;;;12.63;68.88;100253.04;109413;1250;59062;-60
2024/02/12 00:06:57;;;;;;;21.90;6.70;;;;;;;12.59;68.76;100249.27;109458;1251;74826;-62
2024/02/12 00:09:25;;;;;;;17.70;6.60;;;;;;;12.54;69.31;100249.74;109193;1251;72852;-60
2024/02/12 00:11:53;;;;;;;27.80;9.30;;;;;;;12.62;72.64;100250.60;109464;1251;71418;-59
2024/02/12 00:14:22;;;;;;;24.30;9.00;;;;;;;12.87;74.78;100252.80;109492;1251;61714;-58
2024/02/12 00:16:49;;;;;;;24.50;6.90;;;;;;;13.15;75.86;100254.19;109537;1251;59143;-58
2024/02/12 00:19:18;;;;;;;18.60;7.10;;;;;;;13.41;76.31;100254.77;109492;1253;74792;-61
2024/02/12 00:21:48;;;;;;;31.40;8.40;;;;;;;13.64;76.44;100255.88;109490;1252;72832;-62
2024/02/12 00:24:17;;;;;;;27.50;7.80;;;;;;;13.74;75.34;100254.88;109544;1251;71431;-60
2024/02/12 00:26:44;;;;;;;23.80;6.70;;;;;;;13.68;74.20;100246.79;109532;1251;59044;-61
2024/02/12 00:29:13;;;;;;;22.50;6.80;;;;;;;13.54;73.36;100248.58;109514;1251;60070;-61
2024/02/12 00:31:42;;;;;;;21.10;7.10;;;;;;;13.41;72.56;100244.19;109550;1252;74691;-61
2024/02/12 00:34:10;;;;;;;20.90;7.10;;;;;;;13.27;71.94;100245.42;109558;1251;71655;-61
2024/02/12 00:36:38;;;;;;;22.30;6.80;;;;;;;13.15;71.67;100247.14;109539;1250;71419;-60
2024/02/12 00:39:09;;;;;;;33.50;7.90;;;;;;;13.07;71.44;100251.25;109511;1253;60042;-60
2024/02/12 00:41:37;;;;;;;19.70;6.00;;;;;;;12.98;70.92;100249.35;109548;1251;59178;-60
2024/02/12 00:44:05;;;;;;;16.50;6.30;;;;;;;12.90;70.77;100244.45;109473;1251;73432;-61
2024/02/12 00:46:33;;;;;;;19.50;5.80;;;;;;;12.83;70.52;100238.64;109541;1251;72817;-61
2024/02/12 00:49:01;;;;;;;21.50;6.00;;;;;;;12.78;70.38;100241.23;109160;1251;72747;-61
2024/02/12 00:51:29;;;;;;;22.50;7.00;;;;;;;12.73;70.34;100247.00;109477;1251;59146;-61
2024/02/12 00:53:57;;;;;;;17.60;6.60;;;;;;;12.70;70.40;100243.38;109505;1251;58920;-61
2024/02/12 00:56:25;;;;;;;22.50;6.60;;;;;;;12.67;70.36;100241.52;109235;1251;73142;-61
2024/02/12 00:58:53;;;;;;;18.20;6.50;;;;;;;12.66;70.59;100245.23;109561;1251;71448;-61
2024/02/12 01:01:20;;;;;;;19.20;6.20;;;;;;;12.67;70.79;100243.63;109534;1251;72731;-61
2024/02/12 01:03:49;;;;;;;16.50;7.20;;;;;;;12.69;70.79;100244.62;109135;1251;61745;-61
2024/02/12 01:06:17;;;;;;;21.00;7.90;;;;;;;12.68;70.49;100246.05;109528;1254;60938;-60
2024/02/12 01:08:44;;;;;;;21.00;6.90;;;;;;;12.65;70.21;100249.66;109493;1251;75156;-60
2024/02/12 01:11:16;;;;;;;19.80;6.80;;;;;;;12.62;69.96;100250.80;109329;1251;72880;-60
2024/02/12 01:13:44;;;;;;;21.90;5.90;;;;;;;12.59;69.87;100257.02;109478;1251;71428;-60
2024/02/12 01:16:11;;;;;;;20.10;6.10;;;;;;;12.56;69.76;100254.46;109534;1250;61721;-60
2024/02/12 01:18:42;;;;;;;18.70;6.70;;;;;;;12.53;69.89;100254.52;109520;1251;58941;-60
2024/02/12 01:21:09;;;;;;;20.50;6.10;;;;;;;12.50;69.76;100262.52;109549;1250;73487;-60
2024/02/12 01:23:37;;;;;;;18.40;6.20;;;;;;;12.48;69.89;100265.02;109538;1251;71540;-60
2024/02/12 01:26:05;;;;;;;17.80;6.40;;;;;;;12.47;69.87;100257.84;109500;1251;72733;-60
2024/02/12 01:28:35;;;;;;;25.10;6.30;;;;;;;12.45;69.80;100246.45;109543;1254;59010;-61
2024/02/12 01:31:03;;;;;;;22.50;6.10;;;;;;;12.43;69.86;100245.77;109513;1254;60063;-60
2024/02/12 01:33:31;;;;;;;21.60;6.80;;;;;;;12.42;69.99;100244.40;109536;1251;74713;-60
2024/02/12 01:36:00;;;;;;;23.10;7.70;;;;;;;12.42;70.09;100247.02;109563;1251;72775;-61
2024/02/12 01:38:27;;;;;;;21.30;5.70;;;;;;;12.41;70.05;100240.38;109512;1251;75062;-61
2024/02/12 01:40:55;;;;;;;24.50;6.60;;;;;;;12.41;69.84;100239.33;109462;1250;59000;-62
2024/02/12 01:43:30;;;;;;;17.00;6.20;;;;;;;12.39;69.93;100235.16;109574;1251;58932;-62
2024/02/12 01:45:59;;;;;;;24.50;8.80;;;;;;;12.36;69.71;100236.27;109527;1251;74744;-61
2024/02/12 01:48:26;;;;;;;18.50;6.60;;;;;;;12.32;69.65;100232.51;109546;1251;72722;-61
2024/02/12 01:50:54;;;;;;;22.30;6.90;;;;;;;12.28;69.62;100229.95;109514;1254;73106;-61
2024/02/12 01:53:22;;;;;;;15.60;5.60;;;;;;;12.26;69.54;100230.00;109571;1251;59140;-61
2024/02/12 01:55:51;;;;;;;19.20;6.40;;;;;;;12.24;69.61;100234.11;109496;1251;60068;-61
2024/02/12 01:58:18;;;;;;;19.50;5.90;;;;;;;12.21;69.57;100231.00;109473;1252;74631;-61
2024/02/12 02:00:49;;;;;;;20.60;6.90;;;;;;;12.20;69.56;100223.46;109339;1251;72926;-60
2024/02/12 02:03:21;;;;;;;23.30;7.00;;;;;;;12.17;69.65;100219.67;109506;1251;71477;-60
2024/02/12 02:05:49;;;;;;;17.20;5.60;;;;;;;12.16;69.66;100227.42;109463;1254;59183;-60
2024/02/12 02:08:17;;;;;;;17.50;6.20;;;;;;;12.17;69.97;100223.35;109548;1251;59075;-60
2024/02/12 02:10:48;;;;;;;22.30;6.00;;;;;;;12.20;70.09;100217.84;109173;1251;73552;-60
2024/02/12 02:13:16;;;;;;;20.00;6.60;;;;;;;12.22;70.19;100218.14;109092;1251;72276;-60
2024/02/12 02:15:46;;;;;;;20.90;6.70;;;;;;;12.24;70.24;100212.46;109161;1256;73611;-58
2024/02/12 02:18:14;;;;;;;20.40;6.50;;;;;;;12.26;70.29;100205.55;109306;1254;59022;-59
2024/02/12 02:20:42;;;;;;;20.80;6.80;;;;;;;12.28;70.01;100197.08;109597;1251;60091;-60
2024/02/12 02:23:09;;;;;;;17.30;7.40;;;;;;;12.27;69.92;100195.16;109532;1251;74660;-59
2024/02/12 02:25:38;;;;;;;22.40;7.00;;;;;;;12.27;69.77;100196.39;109606;1251;71583;-61
2024/02/12 02:28:06;;;;;;;19.80;6.70;;;;;;;12.26;69.66;100205.73;109153;1251;71443;-61
2024/02/12 02:30:34;;;;;;;18.50;6.40;;;;;;;12.26;69.74;100217.52;109283;1253;61751;-61
2024/02/12 02:33:01;;;;;;;22.10;6.00;;;;;;;12.27;69.93;100222.23;109396;1251;59235;-61
2024/02/12 02:35:30;;;;;;;19.10;7.20;;;;;;;12.30;70.21;100218.30;109309;1251;73526;-60
2024/02/12 02:38:01;;;;;;;19.30;7.20;;;;;;;12.33;70.03;100214.02;109377;1251;72850;-60
2024/02/12 02:40:29;;;;;;;19.90;6.20;;;;;;;12.34;69.79;100214.34;109508;1251;72524;-60
2024/02/12 02:43:00;;;;;;;22.20;5.90;;;;;;;12.33;69.73;100209.09;109278;1251;61873;-61
2024/02/12 02:45:28;;;;;;;21.60;6.90;;;;;;;12.30;69.44;100207.04;109559;1251;60072;-60
2024/02/12 02:47:56;;;;;;;17.60;6.10;;;;;;;12.27;69.38;100198.67;109191;1251;73448;-60
2024/02/12 02:50:24;;;;;;;19.60;6.30;;;;;;;12.26;69.44;100198.36;109195;1254;72949;-61
2024/02/12 02:52:53;;;;;;;23.20;6.50;;;;;;;12.24;69.26;100206.14;109175;1251;71475;-60
2024/02/12 02:55:22;;;;;;;21.70;6.30;;;;;;;12.22;69.38;100208.30;109516;1251;60733;-58
2024/02/12 02:57:51;;;;;;;20.80;5.30;;;;;;;12.22;69.50;100206.38;109520;1251;59381;-58
2024/02/12 03:00:19;;;;;;;16.90;5.30;;;;;;;12.22;69.37;100205.33;109473;1256;74714;-59
2024/02/12 03:02:49;;;;;;;20.80;5.90;;;;;;;12.21;69.36;100202.16;109502;1251;73323;-60
2024/02/12 03:05:17;;;;;;;18.50;6.30;;;;;;;12.19;69.16;100203.61;109481;1251;71729;-61
2024/02/12 03:07:48;;;;;;;18.30;5.80;;;;;;;12.19;69.38;100204.66;109497;1256;60253;-59
2024/02/12 03:10:15;;;;;;;20.10;6.30;;;;;;;12.18;69.32;100205.57;109534;1251;59182;-59
2024/02/12 03:12:45;;;;;;;17.40;6.10;;;;;;;12.17;69.29;100212.98;109177;1251;74742;-60
2024/02/12 03:15:19;;;;;;;16.20;6.50;;;;;;;12.17;69.33;100215.09;109565;1251;73103;-60
2024/02/12 03:17:48;;;;;;;19.00;6.30;;;;;;;12.17;69.39;100221.96;109528;1250;70537;-59
2024/02/12 03:20:17;;;;;;;15.40;5.60;;;;;;;12.17;69.43;100220.73;109512;1251;59012;-58
2024/02/12 03:22:45;;;;;;;13.90;5.90;;;;;;;12.17;69.38;100219.31;109477;1251;59307;-59
2024/02/12 03:25:13;;;;;;;21.70;6.20;;;;;;;12.17;69.50;100222.13;109538;1251;73437;-58
2024/02/12 03:27:41;;;;;;;18.70;6.20;;;;;;;12.19;69.60;100221.91;109523;1251;72190;-58
2024/02/12 03:30:09;;;;;;;17.80;5.90;;;;;;;12.19;69.41;100220.15;109511;1251;71836;-59
2024/02/12 03:32:38;;;;;;;19.70;5.90;;;;;;;12.17;69.18;100220.02;109504;1251;60063;-58
2024/02/12 03:35:07;;;;;;;23.40;6.80;;;;;;;12.13;69.12;100217.45;109534;1251;59102;-59
2024/02/12 03:37:35;;;;;;;20.40;6.00;;;;;;;12.10;68.94;100219.11;109505;1251;74352;-58
2024/02/12 03:40:04;;;;;;;21.90;6.40;;;;;;;12.07;68.80;100222.36;109494;1251;71584;-59
2024/02/12 03:42:32;;;;;;;20.90;5.90;;;;;;;12.04;68.86;100223.13;109242;1251;72767;-59
2024/02/12 03:45:00;;;;;;;19.10;6.30;;;;;;;12.02;68.97;100224.21;109466;1251;60137;-59
2024/02/12 03:47:28;;;;;;;23.30;6.70;;;;;;;12.01;68.97;100221.09;109561;1251;60217;-59
2024/02/12 04:01:02;;;;;;;17.40;6.50;;;;;;;11.90;69.00;100228.30;109552;1251;60106;-57
2024/02/12 04:03:33;;;;;;;17.50;6.10;;;;;;;11.89;69.21;100226.59;109543;1251;74705;-57
2024/02/12 04:06:00;;;;;;;19.20;5.90;;;;;;;11.88;69.20;100221.68;109560;1251;72842;-58
2024/02/12 04:08:28;;;;;;;21.10;5.80;;;;;;;11.88;69.37;100220.80;109202;1254;72739;-58
2024/02/12 04:10:56;;;;;;;17.60;6.20;;;;;;;11.90;69.49;100220.59;109453;1251;61727;-59
2024/02/12 04:13:25;;;;;;;16.20;5.50;;;;;;;11.93;69.64;100217.37;109506;1251;59318;-61
2024/02/12 04:15:54;;;;;;;20.10;5.60;;;;;;;11.96;69.75;100215.92;109573;1251;74693;-61
2024/02/12 04:18:22;;;;;;;16.50;5.10;;;;;;;11.98;69.73;100212.88;109495;1251;72845;-65
2024/02/12 04:20:51;;;;;;;17.00;5.70;;;;;;;12.00;69.45;100213.19;109499;1251;72746;-62
2024/02/12 04:23:19;;;;;;;16.20;5.40;;;;;;;12.00;69.35;100215.66;109534;1251;60321;-62
2024/02/12 04:25:48;;;;;;;16.30;5.20;;;;;;;11.98;69.25;100213.94;109592;1251;60555;-61
2024/02/12 04:28:17;;;;;;;18.30;5.90;;;;;;;11.98;69.26;100215.17;109504;1251;74688;-61
2024/02/12 04:30:47;;;;;;;17.00;5.90;;;;;;;11.98;69.18;100208.84;109435;1254;71847;-63
2024/02/12 04:33:16;;;;;;;17.40;6.40;;;;;;;11.99;69.01;100213.75;109131;1251;73195;-61
2024/02/12 04:35:45;;;;;;;15.50;6.20;;;;;;;11.97;68.93;100216.42;109467;1254;60510;-61
2024/02/12 04:38:13;;;;;;;18.40;6.40;;;;;;;11.95;68.91;100217.33;109527;1251;59251;-60
2024/02/12 04:40:40;;;;;;;21.10;5.80;;;;;;;11.94;68.74;100220.00;109514;1251;74752;-61
2024/02/12 04:43:09;;;;;;;21.20;5.70;;;;;;;11.92;68.80;100218.42;109499;1251;72847;-61
2024/02/12 04:45:38;;;;;;;18.50;6.60;;;;;;;11.91;68.77;100221.09;109199;1251;71141;-62
2024/02/12 04:48:10;;;;;;;19.60;6.60;;;;;;;11.91;68.71;100224.95;109539;1251;59052;-61
2024/02/12 04:50:38;;;;;;;16.70;5.70;;;;;;;11.89;68.66;100225.53;109398;1251;58974;-64
2024/02/12 04:53:07;;;;;;;13.30;5.80;;;;;;;11.87;68.75;100219.95;109465;1251;73498;-62
2024/02/12 04:55:35;;;;;;;20.80;6.00;;;;;;;11.87;68.90;100221.88;109529;1251;72837;-62
2024/02/12 04:58:02;;;;;;;19.30;6.00;;;;;;;11.87;68.69;100221.73;109514;1251;72659;-61
2024/02/12 05:00:30;;;;;;;19.00;5.60;;;;;;;11.85;68.75;100228.79;109511;1251;60134;-60
2024/02/12 05:02:58;;;;;;;20.80;6.40;;;;;;;11.83;68.73;100227.42;109540;1251;60090;-61
2024/02/12 05:05:27;;;;;;;16.50;5.30;;;;;;;11.82;68.68;100232.71;109526;1251;74716;-61
2024/02/12 05:07:55;;;;;;;21.40;5.40;;;;;;;11.79;68.93;100235.05;109525;1251;72855;-61
2024/02/12 05:10:23;;;;;;;18.40;5.80;;;;;;;11.85;70.28;100232.82;109115;1251;75261;-58
2024/02/12 05:12:50;;;;;;;18.50;5.60;;;;;;;11.91;70.13;100238.86;109486;1251;60435;-58
2024/02/12 05:15:18;;;;;;;21.40;6.10;;;;;;;11.90;69.79;100238.88;109170;1251;60091;-57
2024/02/12 05:18:02;;;;;;;19.80;5.40;;;;;;;11.89;69.62;100241.18;109584;1251;73439;-57
2024/02/12 05:23:16;;;;;;;15.20;4.50;;;;;;;11.85;69.30;100237.05;109174;1251;72776;-57
2024/02/12 05:25:44;;;;;;;21.40;5.80;;;;;;;11.83;69.20;100237.09;109459;1251;61764;-55
2024/02/12 05:28:13;;;;;;;19.40;5.50;;;;;;;11.82;69.16;100237.98;109528;1251;58952;-54
2024/02/12 05:30:40;;;;;;;12.50;5.00;;;;;;;11.83;69.30;100230.59;109517;1251;73408;-55
2024/02/12 05:33:09;;;;;;;14.90;5.90;;;;;;;11.84;69.26;100235.49;109474;1251;72833;-56
2024/02/12 05:35:37;;;;;;;18.30;5.70;;;;;;;11.85;69.43;100237.20;109487;1251;71421;-56
2024/02/12 05:38:05;;;;;;;11.40;4.70;;;;;;;11.88;69.50;100236.28;109481;1251;59218;-57
2024/02/12 05:40:35;;;;;;;15.10;5.40;;;;;;;11.91;69.63;100230.92;109306;1251;60138;-56
2024/02/12 05:43:03;;;;;;;15.50;5.00;;;;;;;11.95;69.70;100230.70;109422;1251;74726;-60
2024/02/12 05:45:30;;;;;;;17.80;5.60;;;;;;;12.00;69.89;100235.86;109528;1251;72809;-56
2024/02/12 05:47:58;;;;;;;19.50;6.20;;;;;;;12.06;69.85;100238.03;109464;1251;72707;-54
2024/02/12 05:50:26;;;;;;;14.40;5.20;;;;;;;12.10;69.73;100238.98;109498;1250;59126;-57
2024/02/12 05:52:59;;;;;;;14.30;5.70;;;;;;;12.14;69.63;100242.94;109603;1250;60224;-56
2024/02/12 05:55:27;;;;;;;18.40;5.80;;;;;;;12.18;69.52;100246.90;109042;1251;73439;-58
2024/02/12 05:57:54;;;;;;;16.60;5.20;;;;;;;12.21;69.50;100244.55;109543;1251;72862;-57
2024/02/12 06:00:22;;;;;;;14.60;5.20;;;;;;;12.23;69.45;100236.04;109512;1251;71138;-59
2024/02/12 06:02:50;;;;;;;18.20;6.10;;;;;;;12.27;69.23;100239.48;109536;1251;60539;-57
2024/02/12 06:05:17;;;;;;;15.80;4.90;;;;;;;12.28;69.06;100240.31;109266;1251;59033;-56
2024/02/12 06:07:45;;;;;;;14.10;5.70;;;;;;;12.31;69.07;100240.10;109146;1251;74889;-56
2024/02/12 06:10:18;;;;;;;14.80;5.50;;;;;;;12.34;68.94;100244.25;109516;1254;72839;-57
2024/02/12 06:12:45;;;;;;;19.80;5.40;;;;;;;12.36;68.86;100251.23;109471;1251;71378;-57
2024/02/12 06:15:13;;;;;;;19.70;5.80;;;;;;;12.38;68.77;100251.36;109143;1251;59314;-58
2024/02/12 06:17:42;;;;;;;17.90;5.60;;;;;;;12.38;68.43;100248.38;109249;1251;59045;-56
2024/02/12 06:20:11;;;;;;;15.50;5.10;;;;;;;12.38;68.40;100251.71;109532;1251;74703;-56
2024/02/12 06:22:38;;;;;;;17.80;5.20;;;;;;;12.37;68.21;100253.67;109553;1251;71858;-57
2024/02/12 06:25:08;;;;;;;24.10;6.40;;;;;;;12.35;68.06;100256.19;109545;1251;72729;-57
2024/02/12 06:27:36;;;;;;;17.50;5.30;;;;;;;12.33;68.01;100263.46;109178;1251;61781;-57
2024/02/12 06:30:05;;;;;;;17.20;5.00;;;;;;;12.31;68.02;100266.66;109542;1251;60139;-57
2024/02/12 06:32:33;;;;;;;17.70;5.90;;;;;;;12.29;68.15;100265.98;109260;1251;74766;-57
2024/02/12 06:35:01;;;;;;;13.60;5.40;;;;;;;12.29;68.21;100270.38;109279;1251;71634;-57
2024/02/12 06:37:29;;;;;;;15.20;5.80;;;;;;;12.30;68.14;100274.76;109521;1251;71433;-57
2024/02/12 06:39:56;;;;;;;15.20;5.00;;;;;;;12.30;68.02;100276.35;109161;1250;60347;-57
2024/02/12 06:42:24;;;;;;;16.00;5.20;;;;;;;12.30;68.04;100277.56;109515;1251;60206;-55
2024/02/12 06:44:52;;;;;;;17.20;5.60;;;;;;;12.29;67.89;100280.59;109170;1251;73429;-58
2024/02/12 06:47:20;;;;;;;17.50;6.00;;;;;;;12.28;68.03;100287.64;109255;1251;71620;-59
2024/02/12 06:49:47;;;;;;;13.90;6.00;;;;;;;12.27;67.87;100285.56;109499;1251;73210;-57
2024/02/12 06:52:15;;;;;;;12.90;5.70;;;;;;;12.26;67.92;100286.98;109167;1251;59243;-58
2024/02/12 06:54:46;;;;;;;16.70;5.80;;;;;;;12.26;67.89;100286.27;109522;1251;60059;-57
2024/02/12 06:57:17;;;;;;;15.70;5.90;;;;;;;12.25;67.90;100289.99;109466;1251;74727;-57
2024/02/12 06:59:45;;;;;;;13.70;4.90;;;;;;;12.24;67.80;100287.56;109557;1251;71687;-57
2024/02/12 07:02:13;;;;;;;12.30;4.90;;;;;;;12.22;67.84;100285.49;109377;1251;71293;-57
2024/02/12 07:04:42;;;;;;;16.30;5.30;;;;;;;12.21;67.70;100283.06;109479;1251;60218;-58
2024/02/12 07:07:09;;;;;;;18.30;5.30;;;;;;;12.19;67.69;100282.92;109540;1251;58936;-57
2024/02/12 07:09:37;;;;;;;15.80;5.20;;;;;;;12.19;67.79;100285.02;109569;1251;74688;-58
2024/02/12 07:12:06;;;;;;;16.20;6.00;;;;;;;12.18;67.71;100282.05;109560;1251;73199;-57
2024/02/12 07:14:34;;;;;;;16.30;5.80;;;;;;;12.17;67.71;100283.16;109464;1251;72756;-58
2024/02/12 07:17:02;;;;;;;14.80;4.40;;;;;;;12.17;67.92;100287.53;109519;1251;60916;-57
2024/02/12 07:19:31;;;;;;;14.20;5.60;;;;;;;12.17;67.98;100287.52;109416;1251;60085;-57
2024/02/12 07:22:00;;;;;;;16.30;5.60;;;;;;;12.17;67.98;100289.65;109394;1251;74654;-56
2024/02/12 07:24:28;;;;;;;15.80;5.20;;;;;;;12.19;68.06;100296.80;109391;1253;72847;-56
2024/02/12 07:26:56;;;;;;;17.50;5.60;;;;;;;12.20;68.05;100301.17;109040;1253;72740;-57
2024/02/12 07:29:23;;;;;;;18.00;6.50;;;;;;;12.21;68.03;100299.94;109384;1251;61788;-57
2024/02/12 07:31:52;;;;;;;16.40;5.30;;;;;;;12.22;67.95;100300.27;109176;1251;60077;-57
2024/02/12 07:34:20;;;;;;;25.80;6.30;;;;;;;12.22;67.90;100301.48;109080;1251;74755;-57
2024/02/12 07:36:47;;;;;;;18.00;5.10;;;;;;;12.22;67.87;100306.23;109321;1251;72984;-57
2024/02/12 07:39:19;;;;;;;16.20;5.90;;;;;;;12.21;67.69;100307.67;109390;1251;72115;-56
2024/02/12 07:41:47;;;;;;;19.20;6.90;;;;;;;12.21;67.80;100310.84;109391;1251;58987;-56
2024/02/12 07:44:15;;;;;;;13.70;4.90;;;;;;;12.20;67.72;100315.23;109415;1251;59866;-56
2024/02/12 07:46:43;;;;;;;19.60;4.90;;;;;;;12.21;67.74;100313.84;109422;1251;73440;-56
2024/02/12 07:49:10;;;;;;;16.70;4.90;;;;;;;12.22;67.75;100321.02;109021;1251;72973;-56
2024/02/12 07:51:40;;;;;;;16.80;4.80;;;;;;;12.23;67.79;100319.94;109411;1251;72469;-56
2024/02/12 07:54:08;;;;;;;16.50;5.30;;;;;;;12.24;67.74;100322.38;109035;1251;59679;-55
2024/02/12 07:56:36;;;;;;;18.00;5.30;;;;;;;12.25;67.69;100328.85;109364;1251;59335;-56
2024/02/12 07:59:04;;;;;;;12.70;5.10;;;;;;;12.26;67.51;100326.55;109391;1251;73957;-56
2024/02/12 08:01:32;;;;;;;18.40;5.00;;;;;;;12.25;67.41;100325.35;109396;1251;72314;-57
2024/02/12 08:03:59;;;;;;;17.40;5.10;;;;;;;12.24;67.52;100327.10;109312;1251;72415;-58
2024/02/12 08:06:27;;;;;;;15.10;5.10;;;;;;;12.24;67.53;100333.98;109437;1251;59088;-58
2024/02/12 08:08:56;;;;;;;17.20;6.10;;;;;;;12.24;67.62;100336.98;109422;1251;60581;-58
2024/02/12 08:11:24;;;;;;;21.60;6.20;;;;;;;12.26;67.64;100338.87;109435;1251;74736;-57
2024/02/12 08:13:51;;;;;;;18.50;5.40;;;;;;;12.29;67.73;100338.63;109392;1251;73751;-56
2024/02/12 08:16:21;;;;;;;14.60;5.20;;;;;;;12.30;67.60;100337.01;109348;1253;71810;-56
2024/02/12 08:18:48;;;;;;;21.30;6.10;;;;;;;12.30;67.55;100342.80;109134;1251;61719;-55
2024/02/12 08:21:16;;;;;;;19.40;5.70;;;;;;;12.30;67.49;100342.45;109168;1255;60079;-56
2024/02/12 08:23:44;;;;;;;14.20;4.70;;;;;;;12.30;67.75;100342.27;109404;1251;74639;-55
2024/02/12 08:26:12;;;;;;;17.00;4.10;;;;;;;12.34;67.98;100341.86;109035;1251;74151;-56
2024/02/12 08:28:39;;;;;;;11.40;4.10;;;;;;;12.39;68.17;100341.41;109390;1251;70879;-57
2024/02/12 08:31:08;;;;;;;15.20;4.70;;;;;;;12.42;68.39;100341.85;109209;1251;62473;-58
2024/02/12 08:33:36;;;;;;;16.70;4.60;;;;;;;12.47;68.27;100338.57;109417;1251;59219;-57
2024/02/12 08:36:05;;;;;;;12.20;4.10;;;;;;;12.53;68.30;100338.61;109035;1251;74784;-57
2024/02/12 08:38:32;;;;;;;12.90;3.60;;;;;;;12.58;68.31;100338.84;109446;1251;72100;-57
2024/02/12 08:41:00;;;;;;;18.90;4.80;;;;;;;12.63;68.19;100339.27;109450;1251;72736;-57
2024/02/12 08:43:28;;;;;;;15.90;4.00;;;;;;;12.68;68.17;100341.63;109429;1251;59043;-56
2024/02/12 08:45:56;;;;;;;14.50;4.30;;;;;;;12.72;68.08;100343.30;109427;1251;59027;-57
2024/02/12 08:48:25;;;;;;;11.10;4.00;;;;;;;12.76;67.97;100345.32;109447;1250;73279;-57
2024/02/12 08:50:53;;;;;;;16.70;4.60;;;;;;;12.78;68.06;100351.05;109263;1251;72259;-58
2024/02/12 08:53:22;;;;;;;20.50;4.10;;;;;;;12.81;67.84;100353.82;109406;1251;72563;-56
2024/02/12 08:55:51;;;;;;;16.70;5.00;;;;;;;12.83;67.72;100355.16;109240;1254;60551;-57
2024/02/12 08:58:19;;;;;;;12.50;4.60;;;;;;;12.85;67.68;100353.71;109421;1253;59026;-57
2024/02/12 09:00:50;;;;;;;15.60;3.90;;;;;;;12.87;67.67;100349.10;109447;1251;74658;-57
2024/02/12 09:03:20;;;;;;;12.80;3.50;;;;;;;12.89;67.42;100345.02;109439;1251;73337;-59
2024/02/12 09:05:48;;;;;;;14.70;3.70;;;;;;;12.88;67.13;100334.99;109336;1253;72794;-57
2024/02/12 09:08:15;;;;;;;15.30;3.90;;;;;;;12.86;66.89;100338.40;109404;1252;58968;-57
2024/02/12 09:10:44;;;;;;;16.30;4.60;;;;;;;12.82;66.77;100334.77;109343;1253;59684;-57
2024/02/12 09:13:12;;;;;;;17.30;3.90;;;;;;;12.81;66.80;100336.21;109363;1252;74501;-57
2024/02/12 09:15:39;;;;;;;13.40;4.20;;;;;;;12.79;67.01;100334.31;109354;1253;72868;-58
2024/02/12 09:18:07;;;;;;;18.60;5.10;;;;;;;12.79;67.10;100335.73;109430;1253;70995;-58
2024/02/12 09:20:35;;;;;;;13.80;3.80;;;;;;;12.78;67.10;100330.46;109385;1251;60559;-58
2024/02/12 09:23:04;;;;;;;12.40;3.30;;;;;;;12.79;67.14;100335.02;109445;1251;60576;-58
2024/02/12 09:25:33;;;;;;;16.10;3.20;;;;;;;12.79;67.23;100330.96;109407;1251;73402;-60
2024/02/12 09:28:00;;;;;;;14.10;3.90;;;;;;;12.79;67.04;100334.15;109396;1251;71508;-57
2024/02/12 09:30:28;;;;;;;20.20;3.80;;;;;;;12.79;67.11;100332.05;109444;1251;72255;-58
2024/02/12 09:32:56;;;;;;;16.10;4.70;;;;;;;12.79;66.95;100330.10;109420;1251;60704;-58
2024/02/12 09:35:25;;;;;;;13.80;4.00;;;;;;;12.78;66.95;100324.30;109397;1251;59178;-58
2024/02/12 09:37:52;;;;;;;9.70;3.10;;;;;;;12.78;66.98;100317.45;109442;1251;73866;-57
2024/02/12 09:40:22;;;;;;;14.00;4.70;;;;;;;12.78;67.11;100312.00;109444;1251;71568;-56
2024/02/12 09:42:52;;;;;;;12.40;3.60;;;;;;;12.79;67.10;100306.16;109077;1252;71262;-56
2024/02/12 09:45:20;;;;;;;13.80;3.70;;;;;;;12.79;67.00;100303.17;109152;1254;59144;-57
2024/02/12 09:47:49;;;;;;;39.60;16.50;;;;;;;12.79;66.88;100299.13;109377;1251;59552;-56
2024/02/12 09:50:18;;;;;;;78.70;40.00;;;;;;;12.85;69.57;100295.28;109274;1251;73187;-56
2024/02/12 09:52:45;;;;;;;74.70;37.60;;;;;;;13.16;73.02;100291.86;109235;1251;72347;-55
2024/02/12 09:55:14;;;;;;;67.00;36.50;;;;;;;13.59;73.98;100286.00;108841;1257;71242;-55
2024/02/12 09:57:43;;;;;;;67.80;34.50;;;;;;;13.99;73.89;100286.98;108793;1259;60334;-55
2024/02/12 10:00:12;;;;;;;50.80;26.40;;;;;;;14.35;73.33;100285.54;108851;1258;59316;-55
2024/02/12 10:02:40;;;;;;;54.30;26.50;;;;;;;14.66;72.56;100285.96;108805;1260;74728;-56
2024/02/12 10:05:21;;;;;;;44.00;24.00;;;;;;;14.92;71.63;100280.73;108900;1256;73219;-55
2024/02/12 10:07:50;;;;;;;39.40;18.20;;;;;;;15.16;70.50;100278.14;108882;1257;72905;-55
2024/02/12 10:10:20;;;;;;;42.60;21.50;;;;;;;15.34;69.45;100269.58;108874;1258;59871;-55
2024/02/12 10:12:54;;;;;;;34.40;16.90;;;;;;;15.51;68.63;100266.14;108893;1257;59109;-55
2024/02/12 10:15:23;;;;;;;28.60;15.70;;;;;;;15.65;67.64;100264.23;108908;1258;74038;-55
2024/02/12 10:17:54;;;;;;;29.80;13.80;;;;;;;15.76;66.85;100266.67;108932;1256;71620;-57
2024/02/12 10:20:26;;;;;;;;;;;;;;;15.79;65.84;100264.42;108766;1257;73568;-57
2024/02/12 10:22:57;;;;;;;20.60;8.40;;;;;;;15.67;65.02;100260.26;108937;1257;60657;-58
2024/02/12 10:25:25;;;;;;;19.20;7.00;;;;;;;15.47;64.43;100265.05;108961;1257;59726;-57
2024/02/12 10:27:52;;;;;;;20.10;6.80;;;;;;;15.26;64.08;100269.33;109325;1251;73706;-56
2024/02/12 10:30:21;;;;;;;16.00;5.20;;;;;;;15.06;63.97;100269.11;109321;1253;71434;-57
2024/02/12 10:32:49;;;;;;;17.40;5.20;;;;;;;14.90;63.87;100267.37;109303;1251;71151;-58
2024/02/12 10:35:20;;;;;;;13.50;4.30;;;;;;;14.75;63.71;100264.31;109190;1254;59340;-58
2024/02/12 10:37:48;;;;;;;15.40;3.80;;;;;;;14.64;63.81;100262.40;109351;1252;60081;-58
2024/02/12 10:40:16;;;;;;;14.40;4.20;;;;;;;14.53;63.64;100258.64;109202;1253;73478;-58
2024/02/12 10:42:48;;;;;;;11.50;3.30;;;;;;;14.43;63.67;100257.03;109278;1252;71240;-58
2024/02/12 10:45:17;;;;;;;13.60;4.10;;;;;;;14.34;63.77;100258.19;109330;1251;72387;-59
2024/02/12 10:47:45;;;;;;;11.00;3.20;;;;;;;14.27;63.80;100257.73;109395;1252;59814;-59
2024/02/12 10:50:13;;;;;;;13.00;3.60;;;;;;;14.18;63.70;100257.98;109415;1251;60226;-57
2024/02/12 10:52:46;;;;;;;14.30;3.70;;;;;;;14.10;63.87;100259.66;109415;1251;74733;-57
2024/02/12 10:55:14;;;;;;;12.60;2.90;;;;;;;14.02;63.91;100256.02;109191;1253;75125;-57
2024/02/12 10:57:44;;;;;;;12.10;3.00;;;;;;;13.96;63.92;100257.07;109023;1253;72045;-58
2024/02/12 11:00:25;;;;;;;11.40;3.00;;;;;;;13.92;64.03;100264.44;108980;1254;60917;-58
2024/02/12 11:02:55;;;;;;;13.30;4.20;;;;;;;13.87;64.21;100275.66;109372;1253;59836;-56
2024/02/12 11:05:23;;;;;;;10.30;3.70;;;;;;;13.85;64.35;100272.89;109321;1252;74160;-56
2024/02/12 11:08:04;;;;;;;13.20;3.30;;;;;;;13.84;64.32;100269.06;109300;1253;72080;-58
2024/02/12 11:10:35;;;;;;;10.80;3.20;;;;;;;13.82;64.39;100259.77;109014;1253;313431;-58
2024/02/12 11:13:05;;;;;;;10.50;2.90;;;;;;;13.81;64.41;100258.23;109302;1252;60776;-56
2024/02/12 11:15:34;;;;;;;9.70;3.30;;;;;;;13.79;64.63;100255.64;109281;1253;58915;-58
2024/02/12 11:18:13;;;;;;;16.20;3.70;;;;;;;13.78;64.82;100253.36;109114;1253;74592;-57
2024/02/12 11:20:47;;;;;;;11.20;3.00;;;;;;;13.77;64.68;100246.00;109280;1253;72789;-56
2024/02/12 11:23:22;;;;;;;12.30;3.20;;;;;;;13.76;64.39;100245.51;109295;1253;73308;-57
2024/02/12 11:25:59;;;;;;;12.40;3.90;;;;;;;13.75;64.42;100242.52;109300;1253;59526;-56
2024/02/12 11:28:30;;;;;;;13.20;3.40;;;;;;;13.73;64.20;100238.18;109317;1253;59326;-58
2024/02/12 11:30:58;;;;;;;13.20;3.50;;;;;;;13.72;64.16;100232.20;108866;1253;73678;-57